Time;durP1;ratioP1;P1;durP2;ratioP2;P2;SDS_P1;SDS_P2;PMS_P1;PMS_P2;Temp;Humidity;BMP_temperature;BMP_pressure;BME280_temperature;BME280_humidity;BME280_pressure;Samples;Min_cycle;Max_cycle;Signal;HPM_P1;HPM_P2
2022/08/25 00:00:40;;;;;;;10.18;5.03;;;;;;;;;;5069092;28;20040;-77
2022/08/25 00:03:06;;;;;;;10.43;4.90;;;;;;;;;;5066900;28;20041;-77
2022/08/25 00:05:32;;;;;;;12.50;4.65;;;;;;;;;;5066095;28;20094;-76
2022/08/25 00:07:58;;;;;;;9.05;4.45;;;;;;;;;;5073277;28;20482;-79
2022/08/25 00:10:24;;;;;;;9.55;4.90;;;;;;;;;;5050261;28;20052;-79
2022/08/25 00:12:50;;;;;;;14.93;4.85;;;;;;;;;;5064440;28;20052;-77
2022/08/25 00:15:16;;;;;;;9.32;5.00;;;;;;;;;;5065960;28;20052;-79
2022/08/25 00:17:42;;;;;;;8.68;4.60;;;;;;;;;;5066410;28;20048;-78
2022/08/25 00:20:08;;;;;;;10.20;4.85;;;;;;;;;;5065050;28;20554;-78
2022/08/25 00:22:35;;;;;;;14.35;5.15;;;;;;;;;;5043745;28;20053;-77
2022/08/25 00:25:01;;;;;;;11.10;4.70;;;;;;;;;;5064784;28;20406;-77
2022/08/25 00:27:27;;;;;;;11.23;4.97;;;;;;;;;;5039835;28;20048;-78
2022/08/25 00:29:53;;;;;;;9.82;4.82;;;;;;;;;;5067725;28;20045;-78
2022/08/25 00:32:19;;;;;;;11.88;5.38;;;;;;;;;;5071020;28;20043;-78
2022/08/25 00:34:45;;;;;;;8.90;4.45;;;;;;;;;;5071646;28;20050;-78
2022/08/25 00:37:11;;;;;;;12.02;4.55;;;;;;;;;;5072860;28;20123;-78
2022/08/25 00:39:38;;;;;;;8.77;4.60;;;;;;;;;;5073811;28;20526;-78
2022/08/25 00:42:06;;;;;;;9.38;4.35;;;;;;;;;;5073194;28;20048;-79
2022/08/25 00:44:34;;;;;;;7.22;4.20;;;;;;;;;;5073277;28;20037;-79
2022/08/25 00:47:00;;;;;;;11.63;4.63;;;;;;;;;;5056547;28;20102;-79
2022/08/25 00:49:29;;;;;;;10.77;4.78;;;;;;;;;;5074989;28;20071;-79
2022/08/25 00:52:00;;;;;;;7.93;4.13;;;;;;;;;;5072926;28;20045;-79
2022/08/25 00:54:46;;;;;;;7.28;4.40;;;;;;;;;;5060813;28;20048;-79
2022/08/25 00:57:15;;;;;;;11.55;4.70;;;;;;;;;;5063144;28;20042;-78
2022/08/25 00:59:42;;;;;;;7.35;4.07;;;;;;;;;;5073815;28;20045;-79
2022/08/25 01:02:11;;;;;;;7.68;4.20;;;;;;;;;;5053898;28;20679;-77
2022/08/25 01:04:37;;;;;;;11.70;3.65;;;;;;;;;;5075308;28;20037;-78
2022/08/25 01:07:03;;;;;;;11.32;4.43;;;;;;;;;;5074699;28;20379;-78
2022/08/25 01:09:31;;;;;;;8.73;3.80;;;;;;;;;;5072279;28;20048;-78
2022/08/25 01:11:57;;;;;;;10.73;4.20;;;;;;;;;;5074660;28;20521;-78
2022/08/25 01:14:24;;;;;;;11.50;4.20;;;;;;;;;;5056784;28;20056;-76
2022/08/25 01:16:50;;;;;;;10.30;3.72;;;;;;;;;;5075075;28;20044;-78
2022/08/25 01:19:16;;;;;;;8.30;3.83;;;;;;;;;;5076018;28;20045;-78
2022/08/25 01:21:43;;;;;;;7.60;4.00;;;;;;;;;;5075212;28;20091;-78
2022/08/25 01:24:12;;;;;;;8.13;4.03;;;;;;;;;;5076353;28;20048;-78
2022/08/25 01:26:38;;;;;;;9.27;4.13;;;;;;;;;;5075649;28;20045;-78
2022/08/25 01:29:20;;;;;;;8.85;3.88;;;;;;;;;;5056858;28;20414;-77
2022/08/25 01:31:50;;;;;;;7.97;4.07;;;;;;;;;;5074563;28;20495;-78
2022/08/25 01:34:17;;;;;;;9.13;4.13;;;;;;;;;;5073685;28;20645;-77
2022/08/25 01:36:44;;;;;;;7.70;3.83;;;;;;;;;;5073519;28;20036;-78
2022/08/25 01:39:11;;;;;;;6.80;3.60;;;;;;;;;;5073473;28;20033;-78
2022/08/25 01:41:55;;;;;;;7.80;3.60;;;;;;;;;;5073646;28;20048;-79
2022/08/25 01:44:21;;;;;;;7.55;3.78;;;;;;;;;;5070432;28;20037;-78
2022/08/25 01:46:47;;;;;;;8.02;3.55;;;;;;;;;;5072364;28;20036;-78
2022/08/25 01:49:13;;;;;;;10.02;3.92;;;;;;;;;;5071601;28;20482;-78
2022/08/25 01:51:44;;;;;;;9.65;3.80;;;;;;;;;;5078011;28;20397;-78
2022/08/25 01:54:10;;;;;;;9.15;3.75;;;;;;;;;;5040759;28;20044;-79
2022/08/25 01:56:37;;;;;;;8.45;4.15;;;;;;;;;;5076805;28;20045;-78
2022/08/25 01:59:03;;;;;;;6.10;3.85;;;;;;;;;;5043921;28;20468;-76
2022/08/25 02:01:29;;;;;;;7.47;3.72;;;;;;;;;;5037894;28;20076;-79
2022/08/25 02:03:57;;;;;;;7.80;4.32;;;;;;;;;;5076746;28;20073;-78
2022/08/25 02:06:32;;;;;;;8.82;4.10;;;;;;;;;;5053413;28;20045;-77
2022/08/25 02:09:00;;;;;;;9.07;4.05;;;;;;;;;;5077392;28;20047;-79
2022/08/25 02:11:26;;;;;;;9.25;4.13;;;;;;;;;;5072192;28;20044;-78
2022/08/25 02:13:52;;;;;;;8.23;4.18;;;;;;;;;;5077738;28;20056;-78
2022/08/25 02:16:24;;;;;;;11.77;4.20;;;;;;;;;;5075664;28;20476;-78
2022/08/25 02:18:50;;;;;;;8.65;4.00;;;;;;;;;;5077450;28;20044;-77
2022/08/25 02:21:16;;;;;;;6.40;3.92;;;;;;;;;;5059582;28;20044;-78
2022/08/25 02:23:42;;;;;;;7.43;4.15;;;;;;;;;;5077018;28;20044;-79
2022/08/25 02:26:08;;;;;;;9.73;3.88;;;;;;;;;;5060671;28;20498;-78
2022/08/25 02:28:36;;;;;;;8.50;4.03;;;;;;;;;;5075977;28;20048;-77
2022/08/25 02:31:02;;;;;;;7.20;4.28;;;;;;;;;;5076735;28;20037;-77
2022/08/25 02:33:28;;;;;;;10.40;4.10;;;;;;;;;;5059150;28;20040;-77
2022/08/25 02:35:57;;;;;;;10.45;4.22;;;;;;;;;;5059666;28;20063;-77
2022/08/25 02:38:23;;;;;;;10.52;4.07;;;;;;;;;;5070251;28;20041;-78
2022/08/25 02:40:51;;;;;;;7.18;4.05;;;;;;;;;;5069796;28;20119;-78
2022/08/25 02:43:19;;;;;;;7.43;4.03;;;;;;;;;;5059401;28;20040;-78
2022/08/25 02:45:45;;;;;;;10.07;3.83;;;;;;;;;;5077289;28;20094;-77
2022/08/25 02:48:12;;;;;;;8.57;4.30;;;;;;;;;;5070948;28;20479;-77
2022/08/25 02:50:38;;;;;;;10.82;4.47;;;;;;;;;;5059977;28;20457;-78
2022/08/25 02:53:04;;;;;;;7.25;4.18;;;;;;;;;;5075556;28;20037;-79
2022/08/25 02:55:30;;;;;;;8.50;3.92;;;;;;;;;;5060331;28;20419;-79
2022/08/25 02:57:57;;;;;;;10.55;4.07;;;;;;;;;;5075922;28;20490;-77
2022/08/25 03:00:23;;;;;;;15.13;4.47;;;;;;;;;;5059185;28;20491;-79
2022/08/25 03:02:49;;;;;;;10.82;4.50;;;;;;;;;;5058982;28;20045;-78
2022/08/25 03:05:15;;;;;;;8.43;3.90;;;;;;;;;;5077183;28;20368;-78
2022/08/25 03:07:42;;;;;;;7.88;4.43;;;;;;;;;;5074382;28;20047;-78
2022/08/25 03:10:13;;;;;;;11.10;4.45;;;;;;;;;;5077984;28;20048;-78
2022/08/25 03:12:40;;;;;;;11.43;4.50;;;;;;;;;;5039359;28;20105;-77
2022/08/25 03:15:07;;;;;;;9.23;4.15;;;;;;;;;;5076039;28;20044;-78
2022/08/25 03:17:33;;;;;;;9.20;4.80;;;;;;;;;;5055473;28;20068;-79
2022/08/25 03:19:59;;;;;;;9.95;4.47;;;;;;;;;;5062042;28;20385;-76
2022/08/25 03:22:25;;;;;;;18.00;4.57;;;;;;;;;;5073838;28;20036;-78
2022/08/25 03:24:51;;;;;;;11.07;4.63;;;;;;;;;;5076593;28;20556;-78
2022/08/25 03:27:19;;;;;;;7.80;4.22;;;;;;;;;;5051631;28;20037;-77
2022/08/25 03:29:45;;;;;;;9.20;4.30;;;;;;;;;;5076119;28;20037;-78
2022/08/25 03:32:11;;;;;;;8.43;4.47;;;;;;;;;;5055354;28;20044;-77
2022/08/25 03:34:37;;;;;;;9.57;4.53;;;;;;;;;;5075525;28;20043;-78
2022/08/25 03:37:05;;;;;;;7.65;4.20;;;;;;;;;;5076129;28;20410;-78
2022/08/25 03:39:31;;;;;;;10.30;4.30;;;;;;;;;;5077052;28;20044;-77
2022/08/25 03:41:57;;;;;;;9.60;4.70;;;;;;;;;;5075776;28;20413;-78
2022/08/25 03:44:23;;;;;;;11.13;4.28;;;;;;;;;;5052919;28;20045;-77
2022/08/25 03:46:50;;;;;;;13.30;4.45;;;;;;;;;;5068855;28;20072;-77
2022/08/25 03:49:21;;;;;;;7.97;4.30;;;;;;;;;;5069361;28;20044;-77
2022/08/25 03:51:48;;;;;;;10.52;4.50;;;;;;;;;;5075496;28;20482;-77
2022/08/25 03:54:20;;;;;;;9.80;4.40;;;;;;;;;;5073841;28;20379;-78
2022/08/25 03:56:46;;;;;;;13.65;4.72;;;;;;;;;;5076206;28;20387;-79
2022/08/25 03:59:12;;;;;;;8.35;4.75;;;;;;;;;;5071874;28;20094;-76
2022/08/25 04:01:39;;;;;;;8.55;4.22;;;;;;;;;;5041446;28;21303;-76
2022/08/25 04:04:06;;;;;;;11.73;4.95;;;;;;;;;;5073465;28;20044;-78
2022/08/25 04:06:32;;;;;;;11.88;5.13;;;;;;;;;;5073399;28;20048;-78
2022/08/25 04:08:58;;;;;;;9.45;4.53;;;;;;;;;;5076190;28;20052;-78
2022/08/25 04:11:25;;;;;;;9.38;4.65;;;;;;;;;;5075506;28;20041;-77
2022/08/25 04:13:52;;;;;;;12.02;4.78;;;;;;;;;;5074918;28;20135;-77
2022/08/25 04:16:21;;;;;;;9.65;4.35;;;;;;;;;;5076868;28;20101;-80
2022/08/25 04:18:48;;;;;;;8.25;4.43;;;;;;;;;;5077255;28;20036;-77
2022/08/25 04:21:14;;;;;;;11.20;4.60;;;;;;;;;;5077960;28;20045;-78
2022/08/25 04:23:41;;;;;;;8.93;4.90;;;;;;;;;;5063623;28;20041;-78
2022/08/25 04:26:08;;;;;;;9.85;5.43;;;;;;;;;;5055384;28;20090;-79
2022/08/25 04:28:34;;;;;;;8.73;5.10;;;;;;;;;;5074919;28;20049;-78
2022/08/25 04:31:00;;;;;;;9.07;4.93;;;;;;;;;;5053852;28;20040;-78
2022/08/25 04:33:26;;;;;;;8.18;4.80;;;;;;;;;;5073287;28;20033;-77
2022/08/25 04:35:52;;;;;;;8.32;4.88;;;;;;;;;;5074351;28;20044;-77
2022/08/25 04:38:18;;;;;;;9.27;4.78;;;;;;;;;;5052379;28;20049;-77
2022/08/25 04:40:44;;;;;;;13.15;5.28;;;;;;;;;;5072364;28;20056;-76
2022/08/25 04:43:14;;;;;;;11.98;5.75;;;;;;;;;;5075074;28;20490;-78
2022/08/25 04:45:40;;;;;;;10.77;5.57;;;;;;;;;;5073867;28;20076;-78
2022/08/25 04:48:06;;;;;;;12.00;5.43;;;;;;;;;;5074058;28;20037;-78
2022/08/25 04:50:32;;;;;;;9.93;5.32;;;;;;;;;;5076243;28;20040;-77
2022/08/25 04:52:58;;;;;;;12.25;5.85;;;;;;;;;;5075043;28;20044;-77
2022/08/25 04:55:24;;;;;;;14.25;6.00;;;;;;;;;;5072402;28;20040;-77
2022/08/25 04:57:50;;;;;;;10.52;5.18;;;;;;;;;;5073811;28;20359;-77
2022/08/25 05:00:17;;;;;;;10.48;5.70;;;;;;;;;;5060625;28;20048;-78
2022/08/25 05:02:43;;;;;;;8.88;5.53;;;;;;;;;;5074111;28;20509;-78
2022/08/25 05:05:09;;;;;;;11.10;5.75;;;;;;;;;;5073599;28;20043;-77
2022/08/25 05:07:34;;;;;;;13.65;6.10;;;;;;;;;;5050570;28;20048;-76
2022/08/25 05:10:01;;;;;;;9.77;5.57;;;;;;;;;;5074360;28;20032;-77
2022/08/25 05:12:27;;;;;;;11.85;6.05;;;;;;;;;;5074905;28;20567;-77
2022/08/25 05:14:53;;;;;;;14.32;6.10;;;;;;;;;;5052942;28;20045;-77
2022/08/25 05:17:19;;;;;;;13.88;6.20;;;;;;;;;;5071935;28;20041;-77
2022/08/25 05:19:45;;;;;;;11.48;6.03;;;;;;;;;;5077462;28;20495;-76
2022/08/25 05:22:14;;;;;;;10.25;6.20;;;;;;;;;;5075427;28;20045;-76
2022/08/25 05:24:40;;;;;;;10.88;5.95;;;;;;;;;;5078534;28;20128;-77
2022/08/25 05:27:06;;;;;;;11.80;6.40;;;;;;;;;;5078659;28;20044;-79
2022/08/25 05:29:33;;;;;;;9.07;6.32;;;;;;;;;;5071131;28;20101;-78
2022/08/25 05:31:59;;;;;;;13.57;7.00;;;;;;;;;;5078517;28;20102;-77
2022/08/25 05:34:25;;;;;;;9.75;5.90;;;;;;;;;;5078511;28;20040;-78
2022/08/25 05:36:56;;;;;;;12.38;6.25;;;;;;;;;;5061754;28;20128;-79
2022/08/25 05:39:22;;;;;;;12.05;6.00;;;;;;;;;;5058953;28;20049;-77
2022/08/25 05:41:48;;;;;;;10.75;6.20;;;;;;;;;;5059362;28;20044;-77
2022/08/25 05:44:15;;;;;;;12.40;5.47;;;;;;;;;;5078400;28;20108;-77
2022/08/25 05:46:42;;;;;;;9.85;5.90;;;;;;;;;;5061545;28;20049;-77
2022/08/25 05:49:08;;;;;;;9.73;5.57;;;;;;;;;;5059618;28;20051;-78
2022/08/25 05:51:34;;;;;;;11.95;5.47;;;;;;;;;;5061484;28;20080;-80
2022/08/25 05:54:00;;;;;;;9.75;5.50;;;;;;;;;;5061340;28;20104;-80
2022/08/25 05:56:26;;;;;;;9.30;5.20;;;;;;;;;;5078366;28;20041;-79
2022/08/25 05:58:52;;;;;;;11.25;5.65;;;;;;;;;;5078572;28;20104;-80
2022/08/25 06:04:05;;;;;;;10.57;6.00;;;;;;;;;;5071715;28;20108;-80
2022/08/25 06:06:31;;;;;;;12.80;5.47;;;;;;;;;;5050900;28;20041;-79
2022/08/25 06:08:57;;;;;;;9.32;5.22;;;;;;;;;;5064746;28;20414;-80
2022/08/25 06:11:23;;;;;;;8.45;5.03;;;;;;;;;;5055607;28;20048;-81
2022/08/25 06:13:49;;;;;;;10.00;5.65;;;;;;;;;;5057976;28;20052;-80
2022/08/25 06:16:15;;;;;;;12.50;5.53;;;;;;;;;;5059948;28;20060;-81
2022/08/25 06:18:41;;;;;;;16.35;6.13;;;;;;;;;;5077799;28;20064;-80
2022/08/25 06:21:11;;;;;;;9.32;5.20;;;;;;;;;;5076536;28;20032;-80
2022/08/25 06:23:37;;;;;;;10.23;5.60;;;;;;;;;;5080262;28;20127;-78
2022/08/25 06:26:03;;;;;;;9.00;5.25;;;;;;;;;;5078504;28;20040;-79
2022/08/25 06:28:29;;;;;;;10.70;5.50;;;;;;;;;;5079779;28;20079;-79
2022/08/25 06:30:59;;;;;;;11.55;5.68;;;;;;;;;;5078791;28;20515;-80
2022/08/25 06:33:25;;;;;;;9.45;5.65;;;;;;;;;;5062653;28;20053;-79
2022/08/25 06:35:54;;;;;;;10.57;5.85;;;;;;;;;;5078517;28;20540;-79
2022/08/25 06:38:20;;;;;;;9.00;5.43;;;;;;;;;;5074205;28;20044;-79
2022/08/25 06:40:47;;;;;;;9.18;6.07;;;;;;;;;;5078160;28;20048;-80
2022/08/25 06:43:14;;;;;;;12.30;5.78;;;;;;;;;;5078764;28;20040;-79
2022/08/25 06:45:42;;;;;;;11.20;5.80;;;;;;;;;;5079888;28;20080;-79
2022/08/25 06:48:09;;;;;;;13.77;5.95;;;;;;;;;;5078180;28;20048;-80
2022/08/25 06:50:34;;;;;;;12.65;5.60;;;;;;;;;;5075474;28;20518;-79
2022/08/25 06:53:00;;;;;;;12.00;5.93;;;;;;;;;;5071666;28;20040;-80
2022/08/25 06:55:26;;;;;;;9.60;5.50;;;;;;;;;;5079296;28;20055;-80
2022/08/25 06:57:53;;;;;;;11.65;5.45;;;;;;;;;;5081664;28;20155;-80
2022/08/25 07:00:19;;;;;;;9.48;4.68;;;;;;;;;;5062240;28;20151;-80
2022/08/25 07:02:46;;;;;;;8.15;4.60;;;;;;;;;;5047186;28;20546;-80
2022/08/25 07:05:12;;;;;;;7.40;5.22;;;;;;;;;;5075151;28;20502;-80
2022/08/25 07:07:38;;;;;;;9.38;5.00;;;;;;;;;;5078077;28;20040;-80
2022/08/25 07:10:04;;;;;;;9.50;5.07;;;;;;;;;;5079011;28;20051;-79
2022/08/25 07:12:31;;;;;;;11.93;5.20;;;;;;;;;;5078823;28;20052;-80
2022/08/25 07:14:57;;;;;;;9.43;5.00;;;;;;;;;;5082473;28;20126;-80
2022/08/25 07:17:23;;;;;;;10.48;5.38;;;;;;;;;;5080110;28;20052;-80
2022/08/25 07:19:49;;;;;;;14.13;4.88;;;;;;;;;;5075245;28;20086;-80
2022/08/25 07:22:15;;;;;;;7.63;5.57;;;;;;;;;;5082188;28;20052;-80
2022/08/25 07:24:41;;;;;;;8.52;4.90;;;;;;;;;;5083254;28;20040;-79
2022/08/25 07:27:07;;;;;;;12.80;5.88;;;;;;;;;;5084094;28;20078;-79
2022/08/25 07:29:37;;;;;;;8.95;5.00;;;;;;;;;;5082438;28;20098;-79
2022/08/25 07:32:04;;;;;;;13.93;5.03;;;;;;;;;;5081771;28;20124;-80
2022/08/25 07:37:15;;;;;;;10.73;5.05;;;;;;;;;;5082409;28;20050;-80
2022/08/25 07:39:41;;;;;;;12.07;5.03;;;;;;;;;;5079917;28;20393;-80
2022/08/25 07:42:08;;;;;;;10.07;4.80;;;;;;;;;;5080542;28;20048;-80
2022/08/25 07:44:34;;;;;;;10.48;4.72;;;;;;;;;;5080160;28;20110;-80
2022/08/25 07:47:00;;;;;;;8.95;4.78;;;;;;;;;;5080095;28;20110;-80
2022/08/25 07:49:26;;;;;;;8.75;4.53;;;;;;;;;;5061454;28;20114;-77
2022/08/25 07:51:53;;;;;;;13.13;4.70;;;;;;;;;;5062852;28;20044;-80
2022/08/25 07:54:19;;;;;;;7.32;4.60;;;;;;;;;;5056889;28;20050;-80
2022/08/25 07:56:45;;;;;;;12.10;4.43;;;;;;;;;;5072837;28;20045;-80
2022/08/25 07:59:11;;;;;;;9.25;4.70;;;;;;;;;;5068810;28;20376;-79
2022/08/25 08:01:37;;;;;;;11.25;4.88;;;;;;;;;;5078210;28;20117;-78
2022/08/25 08:04:04;;;;;;;8.88;4.22;;;;;;;;;;5081692;28;20036;-79
2022/08/25 08:06:30;;;;;;;9.85;4.30;;;;;;;;;;5062082;28;20051;-78
2022/08/25 08:08:56;;;;;;;9.90;4.63;;;;;;;;;;5076517;28;20036;-79
2022/08/25 08:11:22;;;;;;;9.75;4.30;;;;;;;;;;5053899;28;20044;-79
2022/08/25 08:13:49;;;;;;;11.40;4.70;;;;;;;;;;5065355;28;20060;-78
2022/08/25 08:16:15;;;;;;;11.55;4.60;;;;;;;;;;5075909;28;20045;-80
2022/08/25 08:18:42;;;;;;;9.85;3.97;;;;;;;;;;5079758;28;20508;-79
2022/08/25 08:21:16;;;;;;;9.02;4.15;;;;;;;;;;5080501;28;20071;-78
2022/08/25 08:23:43;;;;;;;8.48;3.80;;;;;;;;;;5078107;28;20047;-78
2022/08/25 08:26:09;;;;;;;10.02;4.38;;;;;;;;;;5081295;28;20064;-79
2022/08/25 08:28:35;;;;;;;10.77;4.82;;;;;;;;;;5080519;28;20055;-77
2022/08/25 08:31:01;;;;;;;11.55;4.47;;;;;;;;;;5079763;28;20076;-78
2022/08/25 08:33:27;;;;;;;7.00;4.20;;;;;;;;;;5079748;28;20072;-78
2022/08/25 08:36:00;;;;;;;10.48;4.47;;;;;;;;;;5074809;28;20045;-77
2022/08/25 08:38:27;;;;;;;7.85;4.30;;;;;;;;;;5077934;28;20482;-79
2022/08/25 08:42:15;;;;;;;10.35;4.63;;;;;;;;;;5075519;28;20166;-80
2022/08/25 08:43:43;;;;;;;8.27;4.35;;;;;;;;;;5078976;28;20048;-80
2022/08/25 08:46:09;;;;;;;7.05;4.30;;;;;;;;;;5069223;28;20044;-80
2022/08/25 08:48:42;;;;;;;14.15;4.53;;;;;;;;;;5054384;28;21626;-79
2022/08/25 08:51:14;;;;;;;11.98;4.18;;;;;;;;;;5078655;28;20047;-79
2022/08/25 08:53:45;;;;;;;10.38;4.20;;;;;;;;;;5078700;28;20104;-78
2022/08/25 08:56:14;;;;;;;7.95;3.90;;;;;;;;;;5061295;28;20048;-80
2022/08/25 08:58:42;;;;;;;8.98;4.13;;;;;;;;;;5078575;28;20152;-80
2022/08/25 09:01:10;;;;;;;9.20;4.82;;;;;;;;;;5057577;28;20063;-79
2022/08/25 09:03:45;;;;;;;13.82;4.35;;;;;;;;;;5075220;28;20398;-80
2022/08/25 09:06:13;;;;;;;8.88;4.05;;;;;;;;;;5074386;28;20039;-79
2022/08/25 09:08:43;;;;;;;10.60;4.15;;;;;;;;;;5068474;28;20053;-80
2022/08/25 09:11:28;;;;;;;7.95;4.05;;;;;;;;;;5068786;28;20047;-80
2022/08/25 09:14:09;;;;;;;10.93;3.97;;;;;;;;;;5075695;28;20226;-78
2022/08/25 09:17:00;;;;;;;8.15;4.20;;;;;;;;;;5073484;28;20119;-80
2022/08/25 09:19:41;;;;;;;8.85;3.42;;;;;;;;;;5070898;28;20116;-80
2022/08/25 09:22:23;;;;;;;8.05;3.83;;;;;;;;;;5075034;28;20040;-79
2022/08/25 09:24:56;;;;;;;14.82;3.63;;;;;;;;;;5075743;28;20044;-78
2022/08/25 09:27:28;;;;;;;8.50;3.90;;;;;;;;;;5076465;28;20139;-81
2022/08/25 09:29:59;;;;;;;9.50;3.55;;;;;;;;;;5076315;28;20059;-79
2022/08/25 09:32:29;;;;;;;9.48;3.50;;;;;;;;;;5053442;28;20475;-80
2022/08/25 09:34:55;;;;;;;10.70;3.60;;;;;;;;;;5078094;28;20048;-80
2022/08/25 09:37:22;;;;;;;8.70;3.33;;;;;;;;;;5078117;28;20502;-79
2022/08/25 09:39:49;;;;;;;7.32;3.28;;;;;;;;;;5075886;28;20055;-79
2022/08/25 09:42:15;;;;;;;8.65;3.05;;;;;;;;;;5078096;28;20045;-80
2022/08/25 09:44:44;;;;;;;8.82;3.08;;;;;;;;;;5072112;28;20048;-79
2022/08/25 09:47:19;;;;;;;6.00;2.67;;;;;;;;;;5074949;28;20056;-80
2022/08/25 09:50:05;;;;;;;9.90;3.00;;;;;;;;;;5072078;28;20462;-80
2022/08/25 09:52:33;;;;;;;6.22;2.78;;;;;;;;;;5065172;28;20560;-80
2022/08/25 09:55:06;;;;;;;8.18;3.20;;;;;;;;;;5068885;28;20041;-79
2022/08/25 09:57:32;;;;;;;9.60;2.92;;;;;;;;;;5075742;28;20036;-80
2022/08/25 10:00:12;;;;;;;7.22;3.35;;;;;;;;;;5075866;28;20045;-79
2022/08/25 10:02:38;;;;;;;8.43;3.20;;;;;;;;;;5060050;28;20106;-79
2022/08/25 10:05:21;;;;;;;7.22;3.55;;;;;;;;;;5059968;28;20354;-79
2022/08/25 10:08:07;;;;;;;5.68;3.08;;;;;;;;;;5038914;28;20049;-80
2022/08/25 10:10:36;;;;;;;6.57;2.75;;;;;;;;;;5055274;28;20418;-79
2022/08/25 10:13:11;;;;;;;8.90;3.15;;;;;;;;;;5058184;28;20055;-80
2022/08/25 10:15:38;;;;;;;12.45;3.10;;;;;;;;;;5078488;28;20107;-80
2022/08/25 10:18:23;;;;;;;5.63;2.80;;;;;;;;;;5081388;28;20052;-78
2022/08/25 10:21:02;;;;;;;8.40;2.80;;;;;;;;;;5059960;28;20044;-79
2022/08/25 10:23:28;;;;;;;7.90;3.40;;;;;;;;;;5081098;28;20094;-81
2022/08/25 10:25:55;;;;;;;11.73;3.08;;;;;;;;;;5044822;28;20041;-80
2022/08/25 10:28:38;;;;;;;9.77;3.45;;;;;;;;;;5078709;28;20051;-79
2022/08/25 10:31:24;;;;;;;8.65;2.90;;;;;;;;;;5062047;28;20076;-79
2022/08/25 10:34:05;;;;;;;7.15;3.30;;;;;;;;;;5079809;28;20120;-79
2022/08/25 10:36:50;;;;;;;9.88;3.33;;;;;;;;;;5057309;28;20495;-78
2022/08/25 10:39:30;;;;;;;9.00;3.40;;;;;;;;;;5078341;28;20079;-79
2022/08/25 10:42:19;;;;;;;15.45;3.67;;;;;;;;;;5080012;28;20050;-78
2022/08/25 10:48:06;;;;;;;7.40;3.45;;;;;;;;;;4998687;28;20050;-79
2022/08/25 10:50:35;;;;;;;7.95;2.95;;;;;;;;;;4982660;28;20038;-79
2022/08/25 10:53:04;;;;;;;7.15;2.97;;;;;;;;;;4997151;28;20061;-78
2022/08/25 10:55:36;;;;;;;8.93;3.05;;;;;;;;;;4999329;28;20038;-79
2022/08/25 10:58:19;;;;;;;6.50;3.20;;;;;;;;;;4982267;28;20220;-79
2022/08/25 11:00:58;;;;;;;7.28;3.10;;;;;;;;;;4982548;28;20054;-79
2022/08/25 11:03:36;;;;;;;7.20;3.20;;;;;;;;;;4983535;28;20553;-77
2022/08/25 11:06:04;;;;;;;6.57;2.60;;;;;;;;;;4998127;28;20062;-78
2022/08/25 11:08:32;;;;;;;7.00;3.10;;;;;;;;;;4998024;28;20109;-79
2022/08/25 11:11:20;;;;;;;6.85;3.00;;;;;;;;;;4981981;28;20058;-79
2022/08/25 11:14:06;;;;;;;6.55;3.05;;;;;;;;;;4994257;28;20088;-79
2022/08/25 11:16:45;;;;;;;9.23;3.35;;;;;;;;;;4989508;28;20050;-79
2022/08/25 11:19:20;;;;;;;9.45;3.33;;;;;;;;;;5045603;28;20075;-79
2022/08/25 11:21:46;;;;;;;6.47;2.85;;;;;;;;;;5074303;28;20042;-80
2022/08/25 11:24:26;;;;;;;9.35;2.88;;;;;;;;;;5079962;28;20115;-80
2022/08/25 11:26:52;;;;;;;;;;;;;;;;;;5077774;28;20102;-80
2022/08/25 11:29:20;;;;;;;10.00;3.08;;;;;;;;;;5079557;28;20325;-80
2022/08/25 11:31:48;;;;;;;7.00;2.90;;;;;;;;;;5063137;28;20040;-80
2022/08/25 11:34:14;;;;;;;7.03;3.03;;;;;;;;;;5077013;28;20424;-79
2022/08/25 11:36:43;;;;;;;8.95;2.63;;;;;;;;;;5062029;28;20119;-80
2022/08/25 11:39:24;;;;;;;6.93;3.00;;;;;;;;;;5079142;28;20402;-80
2022/08/25 11:41:59;;;;;;;10.65;3.08;;;;;;;;;;5078949;28;20055;-79
2022/08/25 11:44:45;;;;;;;6.00;2.78;;;;;;;;;;5077710;28;20044;-80
2022/08/25 11:47:26;;;;;;;7.90;3.00;;;;;;;;;;5073117;28;20377;-79
2022/08/25 11:49:57;;;;;;;6.53;2.80;;;;;;;;;;5079678;28;20051;-78
2022/08/25 11:52:32;;;;;;;5.80;2.97;;;;;;;;;;5061999;28;20075;-78
2022/08/25 11:55:17;;;;;;;6.28;3.03;;;;;;;;;;5076531;28;20037;-79
2022/08/25 11:57:45;;;;;;;6.88;2.70;;;;;;;;;;5068892;28;20040;-81
2022/08/25 12:00:13;;;;;;;8.23;2.75;;;;;;;;;;5068061;28;20047;-79
2022/08/25 12:02:46;;;;;;;7.97;3.08;;;;;;;;;;5051863;28;20128;-80
2022/08/25 12:05:20;;;;;;;7.95;3.13;;;;;;;;;;5068128;28;20866;-78
2022/08/25 12:08:37;;;;;;;8.10;3.17;;;;;;;;;;5070890;28;20057;-78
2022/08/25 12:10:54;;;;;;;7.93;3.05;;;;;;;;;;5070903;28;20052;-79
2022/08/25 12:13:24;;;;;;;5.90;2.88;;;;;;;;;;5066154;28;20055;-76
2022/08/25 12:15:50;;;;;;;10.15;3.33;;;;;;;;;;5065434;28;20123;-78
2022/08/25 12:18:41;;;;;;;10.38;3.30;;;;;;;;;;5063835;28;20108;-78
2022/08/25 12:21:07;;;;;;;6.50;2.70;;;;;;;;;;5076913;28;20040;-77
2022/08/25 12:23:35;;;;;;;12.10;3.00;;;;;;;;;;5071031;28;20064;-78
2022/08/25 12:26:13;;;;;;;8.48;3.10;;;;;;;;;;5065780;28;20080;-79
2022/08/25 12:28:41;;;;;;;6.45;3.08;;;;;;;;;;5074978;28;20044;-79
2022/08/25 12:31:15;;;;;;;6.60;3.33;;;;;;;;;;5077034;28;20044;-79
2022/08/25 12:33:48;;;;;;;8.07;3.22;;;;;;;;;;5076848;28;20040;-80
2022/08/25 12:36:26;;;;;;;6.28;3.33;;;;;;;;;;5077129;28;20055;-80
2022/08/25 12:38:52;;;;;;;7.32;3.10;;;;;;;;;;5077853;28;20063;-80
2022/08/25 12:41:29;;;;;;;8.10;3.20;;;;;;;;;;5075906;28;20142;-77
2022/08/25 12:44:09;;;;;;;9.70;3.45;;;;;;;;;;5075294;28;20052;-78
2022/08/25 12:46:37;;;;;;;7.85;3.20;;;;;;;;;;5076447;28;20127;-79
2022/08/25 12:49:12;;;;;;;5.50;2.92;;;;;;;;;;5066286;28;20099;-78
2022/08/25 12:51:44;;;;;;;8.38;3.40;;;;;;;;;;5073022;28;20049;-78
2022/08/25 12:54:19;;;;;;;5.88;3.20;;;;;;;;;;5064825;28;20070;-80
2022/08/25 12:56:47;;;;;;;6.07;3.45;;;;;;;;;;5077359;28;20059;-78
2022/08/25 12:59:16;;;;;;;9.10;3.33;;;;;;;;;;5041228;28;20036;-77
2022/08/25 13:02:01;;;;;;;6.57;3.63;;;;;;;;;;5078278;28;20044;-78
2022/08/25 13:04:34;;;;;;;7.22;3.47;;;;;;;;;;5074270;28;20036;-78
2022/08/25 13:07:15;;;;;;;6.65;3.50;;;;;;;;;;5076233;28;20123;-79
2022/08/25 13:09:57;;;;;;;9.55;3.55;;;;;;;;;;5076416;28;20055;-78
2022/08/25 13:12:26;;;;;;;9.18;3.75;;;;;;;;;;5072764;28;20059;-79
2022/08/25 13:14:54;;;;;;;8.85;3.38;;;;;;;;;;5076639;28;20052;-78
2022/08/25 13:17:31;;;;;;;6.15;3.13;;;;;;;;;;5077698;28;20037;-78
2022/08/25 13:20:10;;;;;;;6.32;3.00;;;;;;;;;;5074344;28;20047;-77
2022/08/25 13:22:36;;;;;;;5.90;3.20;;;;;;;;;;5057493;28;20082;-78
2022/08/25 13:25:04;;;;;;;7.22;3.35;;;;;;;;;;5070683;28;20045;-79
2022/08/25 13:27:31;;;;;;;6.95;3.20;;;;;;;;;;5075163;28;20052;-77
2022/08/25 13:29:58;;;;;;;7.63;3.97;;;;;;;;;;5075647;28;20117;-79
2022/08/25 13:32:35;;;;;;;8.35;3.33;;;;;;;;;;5077553;28;20052;-80
2022/08/25 13:35:11;;;;;;;8.30;3.20;;;;;;;;;;5073977;28;20045;-78
2022/08/25 13:37:37;;;;;;;9.77;3.53;;;;;;;;;;5074524;28;20068;-78
2022/08/25 13:40:07;;;;;;;5.55;3.40;;;;;;;;;;5075776;28;20041;-78
2022/08/25 13:42:35;;;;;;;6.80;3.10;;;;;;;;;;5075425;28;20040;-77
2022/08/25 13:45:02;;;;;;;6.68;3.40;;;;;;;;;;5052042;28;20064;-78
2022/08/25 13:47:32;;;;;;;8.27;3.15;;;;;;;;;;5051114;28;20125;-78
2022/08/25 13:50:19;;;;;;;7.45;3.05;;;;;;;;;;5077299;28;20387;-79
2022/08/25 13:52:50;;;;;;;9.77;3.25;;;;;;;;;;5062097;28;20056;-78
2022/08/25 13:55:24;;;;;;;6.55;3.28;;;;;;;;;;5080675;28;20402;-80
2022/08/25 13:57:54;;;;;;;8.88;3.38;;;;;;;;;;5077890;28;20098;-80
2022/08/25 14:00:43;;;;;;;8.38;3.05;;;;;;;;;;5077598;28;20045;-78
2022/08/25 14:03:28;;;;;;;6.85;3.15;;;;;;;;;;5069849;28;20513;-79
2022/08/25 14:06:04;;;;;;;7.45;3.05;;;;;;;;;;5080514;28;20087;-79
2022/08/25 14:08:32;;;;;;;6.95;3.22;;;;;;;;;;5079301;28;20132;-78
2022/08/25 14:11:22;;;;;;;8.88;3.50;;;;;;;;;;5080181;28;20057;-78
2022/08/25 14:13:58;;;;;;;6.20;3.40;;;;;;;;;;5066354;28;20048;-78
2022/08/25 14:16:24;;;;;;;8.60;3.05;;;;;;;;;;5080720;28;20049;-78
2022/08/25 14:18:52;;;;;;;8.05;3.38;;;;;;;;;;5076456;28;20041;-80
2022/08/25 14:21:19;;;;;;;9.88;3.40;;;;;;;;;;5079553;28;20037;-78
2022/08/25 14:23:48;;;;;;;10.00;3.45;;;;;;;;;;5079664;28;20105;-79
2022/08/25 14:26:14;;;;;;;6.80;3.53;;;;;;;;;;5076688;28;20201;-77
2022/08/25 14:28:40;;;;;;;8.50;3.60;;;;;;;;;;5080262;28;20127;-78
2022/08/25 14:31:10;;;;;;;6.75;3.42;;;;;;;;;;5073224;28;20048;-80
2022/08/25 14:33:44;;;;;;;9.13;3.38;;;;;;;;;;5080640;28;20044;-79
2022/08/25 14:36:10;;;;;;;6.57;3.35;;;;;;;;;;5078273;28;20044;-79
2022/08/25 14:38:37;;;;;;;9.32;3.30;;;;;;;;;;5080892;28;20049;-78
2022/08/25 14:41:04;;;;;;;6.10;3.58;;;;;;;;;;5078808;28;20056;-78
2022/08/25 14:43:30;;;;;;;7.85;3.70;;;;;;;;;;5081322;28;20051;-79
2022/08/25 14:45:57;;;;;;;7.22;3.20;;;;;;;;;;5080737;28;20113;-77
2022/08/25 14:48:27;;;;;;;7.82;3.28;;;;;;;;;;5077898;28;20064;-80
2022/08/25 14:50:55;;;;;;;7.15;3.40;;;;;;;;;;5070554;28;20032;-79
2022/08/25 14:53:21;;;;;;;7.20;3.20;;;;;;;;;;5081259;28;20045;-78
2022/08/25 14:55:48;;;;;;;8.15;3.55;;;;;;;;;;5078383;28;20044;-80
2022/08/25 14:58:14;;;;;;;7.38;3.45;;;;;;;;;;5081490;28;20070;-78
2022/08/25 15:00:41;;;;;;;6.88;3.60;;;;;;;;;;5078355;28;20116;-79